createdAt,value
2023-07-29T00:00:57.786Z,98713.00
2023-07-29T00:04:00.306Z,98712.91
2023-07-29T00:07:02.623Z,98714.53
2023-07-29T00:10:05.481Z,98713.63
2023-07-29T00:13:08.594Z,98713.41
2023-07-29T00:16:11.217Z,98708.19
2023-07-29T00:19:13.595Z,98695.09
2023-07-29T00:22:15.888Z,98703.78
2023-07-29T00:25:18.169Z,98710.66
2023-07-29T00:28:23.427Z,98708.13
2023-07-29T00:31:25.979Z,98705.50
2023-07-29T00:34:29.736Z,98711.59
2023-07-29T00:37:32.017Z,98703.00
2023-07-29T00:40:37.327Z,98710.94
2023-07-29T00:43:39.650Z,98703.69
2023-07-29T00:46:43.110Z,98700.81
2023-07-29T00:49:45.891Z,98702.22
2023-07-29T00:52:48.378Z,98696.25
2023-07-29T00:55:51.666Z,98693.94
2023-07-29T00:58:59.857Z,98704.56
2023-07-29T01:02:04.412Z,98712.84
2023-07-29T01:05:07.991Z,98707.81
2023-07-29T01:08:30.151Z,98713.06
2023-07-29T01:11:35.552Z,98702.72
2023-07-29T01:14:52.237Z,98700.03
2023-07-29T01:18:00.243Z,98699.03
2023-07-29T01:21:12.186Z,98695.50
2023-07-29T01:24:14.488Z,98693.59
2023-07-29T01:27:16.921Z,98700.56
2023-07-29T01:30:22.620Z,98696.19
2023-07-29T01:33:28.124Z,98693.50
2023-07-29T01:36:35.540Z,98693.50
2023-07-29T01:39:38.120Z,98694.38
2023-07-29T01:42:40.378Z,98692.25
2023-07-29T01:45:43.083Z,98693.31
2023-07-29T01:48:45.808Z,98699.81
2023-07-29T01:51:49.932Z,98700.31
2023-07-29T01:54:52.194Z,98692.91
2023-07-29T01:57:54.533Z,98693.53
2023-07-29T02:00:58.090Z,98694.25
2023-07-29T02:04:00.553Z,98694.97
2023-07-29T02:07:02.854Z,98689.69
2023-07-29T02:10:05.759Z,98690.59
2023-07-29T02:13:08.098Z,98697.41
2023-07-29T02:16:10.396Z,98708.38
2023-07-29T02:19:12.921Z,98705.66
2023-07-29T02:22:17.338Z,98694.91
2023-07-29T02:25:19.670Z,98699.22
2023-07-29T02:28:21.991Z,98704.19
2023-07-29T02:31:25.986Z,98705.75
2023-07-29T02:34:28.616Z,98705.63
2023-07-29T02:37:30.932Z,98714.13
2023-07-29T02:40:33.266Z,98709.81
2023-07-29T02:43:35.584Z,98708.69
2023-07-29T02:46:38.066Z,98712.69
2023-07-29T02:49:40.716Z,98713.28
2023-07-29T02:52:43.001Z,98715.81
2023-07-29T02:55:45.299Z,98709.41
2023-07-29T02:58:47.612Z,98707.75
2023-07-29T03:01:49.917Z,98710.38
2023-07-29T03:04:52.318Z,98712.97
2023-07-29T03:07:54.988Z,98705.91
2023-07-29T03:10:58.389Z,98708.63
2023-07-29T03:14:01.940Z,98712.84
2023-07-29T03:17:06.127Z,98717.28
2023-07-29T03:20:09.083Z,98717.84
2023-07-29T03:23:11.335Z,98717.34
2023-07-29T03:26:13.692Z,98721.88
2023-07-29T03:29:16.029Z,98723.81
2023-07-29T03:32:18.332Z,98716.72
2023-07-29T03:35:20.587Z,98721.66
2023-07-29T03:38:22.862Z,98718.94
2023-07-29T03:41:25.176Z,98720.72
2023-07-29T03:44:27.460Z,98728.81
2023-07-29T03:47:29.778Z,98724.75
2023-07-29T03:50:36.148Z,98720.47
2023-07-29T03:53:38.586Z,98718.91
2023-07-29T03:56:40.924Z,98729.13
2023-07-29T03:59:43.196Z,98717.16
2023-07-29T04:02:46.890Z,98715.25
2023-07-29T04:05:49.653Z,98718.69
2023-07-29T04:08:52.172Z,98720.47
2023-07-29T04:11:54.490Z,98717.22
2023-07-29T04:14:56.803Z,98716.66
2023-07-29T04:17:59.160Z,98720.31
2023-07-29T04:21:01.804Z,98722.88
2023-07-29T04:24:04.329Z,98719.34
2023-07-29T04:27:06.882Z,98726.34
2023-07-29T04:30:09.678Z,98726.47
2023-07-29T04:33:11.908Z,98732.75
2023-07-29T04:36:14.264Z,98727.84
2023-07-29T04:39:20.264Z,98728.22
2023-07-29T04:42:22.704Z,98712.75
2023-07-29T04:45:29.934Z,98731.31
2023-07-29T04:48:32.262Z,98723.09
2023-07-29T04:51:34.853Z,98725.31
2023-07-29T04:54:37.169Z,98726.66
2023-07-29T04:57:39.487Z,98715.78
2023-07-29T05:00:41.806Z,98723.41
2023-07-29T05:03:44.837Z,98725.81
2023-07-29T05:06:48.167Z,98725.16
2023-07-29T05:09:50.502Z,98721.03
2023-07-29T05:12:52.836Z,98733.63
2023-07-29T05:15:55.785Z,98732.56
2023-07-29T05:18:58.130Z,98736.81
2023-07-29T05:22:00.371Z,98727.44
2023-07-29T05:25:04.385Z,98737.28
2023-07-29T05:28:06.788Z,98739.28
2023-07-29T05:31:09.088Z,98743.88
2023-07-29T05:34:11.837Z,98741.63
2023-07-29T05:37:14.936Z,98742.94
2023-07-29T05:40:17.661Z,98730.25
2023-07-29T05:43:19.978Z,98735.94
2023-07-29T05:46:22.311Z,98745.13
2023-07-29T05:49:25.059Z,98742.19
2023-07-29T05:52:27.357Z,98743.38
2023-07-29T05:55:29.636Z,98738.50
2023-07-29T05:58:32.413Z,98743.25
2023-07-29T06:01:34.685Z,98755.09
2023-07-29T06:04:37.005Z,98759.69
2023-07-29T06:07:39.379Z,98755.97
2023-07-29T06:10:41.745Z,98755.09
2023-07-29T06:13:44.109Z,98777.31
2023-07-29T06:16:46.399Z,98764.78
2023-07-29T06:19:49.024Z,98786.00
2023-07-29T06:22:51.299Z,98791.94
2023-07-29T06:25:53.564Z,98787.22
2023-07-29T06:28:55.857Z,98789.13
2023-07-29T06:31:59.656Z,98797.94
2023-07-29T06:35:02.081Z,98792.50
2023-07-29T06:38:04.351Z,98795.69
2023-07-29T06:41:07.016Z,98788.84
2023-07-29T06:44:09.528Z,98791.28
2023-07-29T06:47:11.826Z,98795.66
2023-07-29T06:50:14.207Z,98793.59
2023-07-29T06:53:16.547Z,98790.25
2023-07-29T06:56:18.981Z,98792.56
2023-07-29T06:59:21.389Z,98784.44
2023-07-29T07:02:23.898Z,98787.94
2023-07-29T07:05:26.281Z,98791.81
2023-07-29T07:08:28.568Z,98791.75
2023-07-29T07:11:30.854Z,98792.59
2023-07-29T07:14:33.149Z,98792.50
2023-07-29T07:17:35.482Z,98786.19
2023-07-29T07:20:38.065Z,98791.00
2023-07-29T07:23:40.755Z,98796.66
2023-07-29T07:26:42.977Z,98785.56
2023-07-29T07:29:45.264Z,98796.50
2023-07-29T07:32:47.647Z,98785.03
2023-07-29T07:35:49.986Z,98780.84
2023-07-29T07:38:52.273Z,98781.44
2023-07-29T07:41:54.550Z,98779.34
2023-07-29T07:44:56.887Z,98767.06
2023-07-29T07:47:59.223Z,98763.50
2023-07-29T07:51:01.570Z,98767.66
2023-07-29T07:54:03.834Z,98767.91
2023-07-29T07:57:06.798Z,98763.69
2023-07-29T08:00:10.818Z,98764.25
2023-07-29T08:03:15.783Z,98763.63
2023-07-29T08:06:18.055Z,98757.84
2023-07-29T08:09:20.315Z,98757.97
2023-07-29T08:12:22.631Z,98763.22
2023-07-29T08:15:24.914Z,98762.34
2023-07-29T08:18:27.229Z,98759.28
2023-07-29T08:21:29.494Z,98752.63
2023-07-29T08:24:31.813Z,98746.31
2023-07-29T08:27:35.735Z,98760.09
2023-07-29T08:30:38.023Z,98750.66
2023-07-29T08:33:40.291Z,98755.78
2023-07-29T08:36:42.594Z,98749.72
2023-07-29T08:39:45.159Z,98755.72
2023-07-29T08:42:48.651Z,98758.97
2023-07-29T08:45:52.198Z,98756.63
2023-07-29T08:48:55.903Z,98743.53
2023-07-29T08:51:58.813Z,98753.59
2023-07-29T08:55:01.529Z,98749.03
2023-07-29T08:58:04.191Z,98752.00
2023-07-29T09:01:07.294Z,98748.72
2023-07-29T09:04:09.953Z,98744.16
2023-07-29T09:07:13.000Z,98748.16
2023-07-29T09:10:15.667Z,98746.22
2023-07-29T09:13:18.024Z,98744.09
2023-07-29T09:16:22.557Z,98735.47
2023-07-29T09:19:28.353Z,98723.28
2023-07-29T09:22:31.518Z,98724.59
2023-07-29T09:25:33.805Z,98730.78
2023-07-29T09:28:40.821Z,98720.78
2023-07-29T09:31:43.165Z,98723.03
2023-07-29T09:34:45.654Z,98724.66
2023-07-29T09:37:48.918Z,98723.31
2023-07-29T09:40:51.174Z,98720.84
2023-07-29T09:43:58.824Z,98720.53
2023-07-29T09:47:01.093Z,98718.56
2023-07-29T09:50:03.406Z,98721.19
2023-07-29T09:53:08.247Z,98720.72
2023-07-29T09:56:11.226Z,98711.91
2023-07-29T09:59:13.900Z,98711.31
2023-07-29T10:02:17.737Z,98709.03
2023-07-29T10:05:21.465Z,98709.69
2023-07-29T10:08:25.718Z,98700.63
2023-07-29T10:11:28.343Z,98704.31
2023-07-29T10:14:32.022Z,98697.03
2023-07-29T10:17:37.062Z,98697.88
2023-07-29T10:20:41.300Z,98691.25
2023-07-29T10:23:46.553Z,98693.41
2023-07-29T10:26:51.151Z,98688.78
2023-07-29T10:29:56.345Z,98689.84
2023-07-29T10:33:07.770Z,98690.63
2023-07-29T10:36:10.533Z,98684.63
2023-07-29T10:39:13.964Z,98687.97
2023-07-29T10:42:16.211Z,98682.56
2023-07-29T10:45:22.375Z,98688.81
2023-07-29T10:48:50.866Z,98685.66
2023-07-29T10:51:54.500Z,98696.13
2023-07-29T10:54:59.509Z,98689.66
2023-07-29T10:58:15.334Z,98688.22
2023-07-29T11:01:28.722Z,98692.41
2023-07-29T11:04:32.283Z,98693.00
2023-07-29T11:07:48.228Z,98684.56
2023-07-29T11:11:09.494Z,98689.28
2023-07-29T11:14:11.995Z,98683.09
2023-07-29T11:17:15.267Z,98682.56
2023-07-29T11:20:25.734Z,98683.47
2023-07-29T11:23:36.087Z,98682.06
2023-07-29T11:26:39.104Z,98668.09
2023-07-29T11:29:41.491Z,98679.34
2023-07-29T11:32:45.463Z,98673.31
2023-07-29T11:35:47.825Z,98666.56
2023-07-29T11:38:50.256Z,98673.53
2023-07-29T11:41:52.582Z,98663.81
2023-07-29T11:44:57.717Z,98674.38
2023-07-29T11:48:01.947Z,98671.47
2023-07-29T11:51:04.736Z,98670.50
2023-07-29T11:54:07.469Z,98665.50
2023-07-29T11:57:10.288Z,98654.38
2023-07-29T12:00:14.096Z,98661.44
2023-07-29T12:03:20.526Z,98661.19
2023-07-29T12:06:25.659Z,98657.63
2023-07-29T12:09:29.708Z,98653.03
2023-07-29T12:12:32.145Z,98637.88
2023-07-29T12:15:35.509Z,98647.47
2023-07-29T12:18:37.868Z,98643.84
2023-07-29T12:21:42.759Z,98645.06
2023-07-29T12:24:45.145Z,98639.53
2023-07-29T12:27:48.134Z,98641.06
2023-07-29T12:30:57.102Z,98637.53
2023-07-29T12:33:59.554Z,98646.72
2023-07-29T12:37:04.097Z,98645.53
2023-07-29T12:40:06.906Z,98632.63
2023-07-29T12:43:09.271Z,98627.78
2023-07-29T12:46:11.631Z,98628.94
2023-07-29T12:49:17.295Z,98623.59
2023-07-29T12:52:19.545Z,98628.28
2023-07-29T12:55:23.893Z,98628.69
2023-07-29T12:58:26.484Z,98626.78
2023-07-29T13:01:29.578Z,98621.63
2023-07-29T13:04:31.807Z,98617.00
2023-07-29T13:07:34.155Z,98615.47
2023-07-29T13:10:36.399Z,98616.72
2023-07-29T13:13:38.806Z,98600.41
2023-07-29T13:16:41.626Z,98607.09
2023-07-29T13:19:44.139Z,98595.03
2023-07-29T13:22:46.393Z,98608.94
2023-07-29T13:25:48.652Z,98607.56
2023-07-29T13:28:50.906Z,98604.66
2023-07-29T13:31:53.308Z,98606.75
2023-07-29T13:34:55.708Z,98595.69
2023-07-29T13:37:57.946Z,98601.69
2023-07-29T13:41:00.342Z,98584.34
2023-07-29T13:44:02.669Z,98582.69
2023-07-29T13:47:05.281Z,98590.00
2023-07-29T13:50:11.031Z,98594.84
2023-07-29T13:53:13.356Z,98587.44
2023-07-29T13:56:15.590Z,98573.47
2023-07-29T13:59:17.924Z,98557.69
2023-07-29T14:02:20.285Z,98566.34
2023-07-29T14:05:22.552Z,98572.09
2023-07-29T14:08:24.914Z,98555.09
2023-07-29T14:11:27.135Z,98557.56
2023-07-29T14:14:29.413Z,98557.41
2023-07-29T14:17:32.673Z,98566.53
2023-07-29T14:20:35.148Z,98565.09
2023-07-29T14:23:37.450Z,98559.22
2023-07-29T14:26:39.803Z,98553.69
2023-07-29T14:29:42.103Z,98556.81
2023-07-29T14:32:44.378Z,98558.28
2023-07-29T14:35:46.800Z,98557.25
2023-07-29T14:38:49.109Z,98554.09
2023-07-29T14:41:51.432Z,98550.59
2023-07-29T14:44:54.108Z,98556.81
2023-07-29T14:47:56.464Z,98557.53
2023-07-29T14:50:58.873Z,98546.06
2023-07-29T14:54:01.135Z,98538.53
2023-07-29T14:57:03.896Z,98542.97
2023-07-29T15:00:07.235Z,98544.41
2023-07-29T15:03:09.561Z,98540.66
2023-07-29T15:06:11.923Z,98542.13
2023-07-29T15:09:14.204Z,98547.84
2023-07-29T15:12:16.573Z,98535.59
2023-07-29T15:15:19.013Z,98543.97
2023-07-29T15:18:21.268Z,98544.09
2023-07-29T15:21:24.102Z,98541.78
2023-07-29T15:24:26.362Z,98542.81
2023-07-29T15:27:29.949Z,98543.28
2023-07-29T15:30:32.260Z,98547.22
2023-07-29T15:33:35.706Z,98542.75
2023-07-29T15:36:39.310Z,98539.13
2023-07-29T15:39:43.006Z,98550.09
2023-07-29T15:42:45.489Z,98552.09
2023-07-29T15:45:47.852Z,98547.66
2023-07-29T15:48:50.131Z,98545.44
2023-07-29T15:51:52.626Z,98559.34
2023-07-29T15:54:56.126Z,98557.59
2023-07-29T15:57:58.540Z,98554.94
2023-07-29T16:01:00.833Z,98569.03
2023-07-29T16:04:03.350Z,98575.56
2023-07-29T16:07:06.035Z,98570.34
2023-07-29T16:10:09.892Z,98572.44
2023-07-29T16:13:14.127Z,98578.66
2023-07-29T16:16:16.479Z,98583.25
2023-07-29T16:19:25.549Z,98591.22
2023-07-29T16:22:28.077Z,98590.47
2023-07-29T16:25:30.333Z,98596.94
2023-07-29T16:28:32.853Z,98592.44
2023-07-29T16:31:36.122Z,98597.63
2023-07-29T16:34:39.724Z,98606.63
2023-07-29T16:37:42.045Z,98603.97
2023-07-29T16:40:57.701Z,98607.44
2023-07-29T16:44:06.594Z,98601.25
2023-07-29T16:47:08.918Z,98598.69
2023-07-29T16:50:11.390Z,98592.56
2023-07-29T16:53:13.720Z,98601.56
2023-07-29T16:56:16.036Z,98613.00
2023-07-29T16:59:18.621Z,98607.84
2023-07-29T17:02:20.959Z,98607.91
2023-07-29T17:05:23.220Z,98611.41
2023-07-29T17:08:25.598Z,98615.88
2023-07-29T17:11:28.038Z,98610.66
2023-07-29T17:14:30.408Z,98618.69
2023-07-29T17:17:32.769Z,98615.19
2023-07-29T17:20:35.072Z,98619.72
2023-07-29T17:23:37.298Z,98619.75
2023-07-29T17:26:39.643Z,98621.66
2023-07-29T17:29:43.093Z,98619.97
2023-07-29T17:32:45.441Z,98616.59
2023-07-29T17:35:47.758Z,98611.31
2023-07-29T17:38:50.192Z,98614.91
2023-07-29T17:41:52.710Z,98621.19
2023-07-29T17:44:55.068Z,98616.88
2023-07-29T17:47:57.480Z,98620.44
2023-07-29T17:50:59.777Z,98616.97
2023-07-29T17:54:02.047Z,98625.88
2023-07-29T17:57:04.667Z,98621.56
2023-07-29T18:00:07.635Z,98620.75
2023-07-29T18:03:10.026Z,98619.13
2023-07-29T18:06:14.414Z,98620.94
2023-07-29T18:09:16.683Z,98628.84
2023-07-29T18:12:18.951Z,98629.78
2023-07-29T18:15:21.229Z,98629.81
2023-07-29T18:18:23.652Z,98629.00
2023-07-29T18:21:26.036Z,98640.38
2023-07-29T18:24:28.346Z,98649.19
2023-07-29T18:27:32.769Z,98648.34
2023-07-29T18:30:35.643Z,98656.25
2023-07-29T18:33:37.988Z,98654.50
2023-07-29T18:36:42.083Z,98653.63
2023-07-29T18:39:46.558Z,98661.53
2023-07-29T18:42:48.765Z,98661.56
2023-07-29T18:45:51.318Z,98665.09
2023-07-29T18:48:59.978Z,98667.66
2023-07-29T18:52:02.497Z,98660.69
2023-07-29T18:55:05.129Z,98663.34
2023-07-29T18:58:07.445Z,98665.09
2023-07-29T19:01:12.008Z,98662.44
2023-07-29T19:04:15.989Z,98643.19
2023-07-29T19:07:20.073Z,98662.44
2023-07-29T19:10:22.594Z,98662.41
2023-07-29T19:13:25.557Z,98665.88
2023-07-29T19:16:38.691Z,98669.34
2023-07-29T19:19:42.269Z,98669.34
2023-07-29T19:22:44.868Z,98667.56
2023-07-29T19:25:47.879Z,98671.88
2023-07-29T19:28:57.638Z,98665.75
2023-07-29T19:32:00.820Z,98668.38
2023-07-29T19:35:05.241Z,98663.97
2023-07-29T19:38:07.845Z,98666.56
2023-07-29T19:41:13.418Z,98642.09
2023-07-29T19:44:22.432Z,98656.00
2023-07-29T19:47:25.562Z,98654.25
2023-07-29T19:50:33.755Z,98635.03
2023-07-29T19:53:44.058Z,98631.50
2023-07-29T19:56:47.671Z,98630.50
2023-07-29T19:59:50.858Z,98608.59
2023-07-29T20:02:53.411Z,98589.31
2023-07-29T20:05:56.280Z,98611.13
2023-07-29T20:08:59.133Z,98602.28
2023-07-29T20:12:02.902Z,98618.81
2023-07-29T20:15:07.574Z,98617.94
2023-07-29T20:18:10.245Z,98592.59
2023-07-29T20:21:12.672Z,98612.72
2023-07-29T20:24:16.264Z,98623.09
2023-07-29T20:27:18.539Z,98642.22
2023-07-29T20:30:20.962Z,98637.91
2023-07-29T20:33:25.325Z,98638.78
2023-07-29T20:36:30.543Z,98655.34
2023-07-29T20:39:32.813Z,98639.56
2023-07-29T20:42:37.598Z,98653.50
2023-07-29T20:45:39.938Z,98651.75
2023-07-29T20:48:42.235Z,98654.28
2023-07-29T20:51:44.495Z,98658.59
2023-07-29T20:54:46.783Z,98664.59
2023-07-29T20:57:49.087Z,98667.16
2023-07-29T21:00:54.899Z,98665.41
2023-07-29T21:03:57.613Z,98670.63
2023-07-29T21:07:01.235Z,98667.97
2023-07-29T21:10:03.747Z,98675.75
2023-07-29T21:13:06.062Z,98674.78
2023-07-29T21:16:08.572Z,98666.09
2023-07-29T21:19:10.873Z,98666.84
2023-07-29T21:22:13.146Z,98663.25
2023-07-29T21:25:15.554Z,98670.06
2023-07-29T21:28:19.453Z,98672.63
2023-07-29T21:31:21.861Z,98668.22
2023-07-29T21:34:24.108Z,98673.31
2023-07-29T21:37:35.859Z,98682.88
2023-07-29T21:40:39.100Z,98693.19
2023-07-29T21:43:41.425Z,98692.25
2023-07-29T21:46:43.686Z,98694.00
2023-07-29T21:49:46.060Z,98699.06
2023-07-29T21:52:48.421Z,98693.84
2023-07-29T21:55:52.745Z,98695.66
2023-07-29T21:58:55.061Z,98694.78
2023-07-29T22:01:57.297Z,98689.44
2023-07-29T22:04:59.539Z,98686.78
2023-07-29T22:08:04.224Z,98688.56
2023-07-29T22:11:10.339Z,98692.09
2023-07-29T22:14:12.663Z,98683.31
2023-07-29T22:17:14.968Z,98687.63
2023-07-29T22:20:17.287Z,98688.50
2023-07-29T22:23:19.520Z,98697.13
2023-07-29T22:26:21.779Z,98694.59
2023-07-29T22:29:24.017Z,98697.13
2023-07-29T22:32:26.706Z,98695.38
2023-07-29T22:35:29.054Z,98690.31
2023-07-29T22:38:31.412Z,98695.59
2023-07-29T22:41:33.708Z,98704.38
2023-07-29T22:44:35.985Z,98706.88
2023-07-29T22:47:38.355Z,98712.88
2023-07-29T22:50:40.706Z,98712.75
2023-07-29T22:53:42.964Z,98711.81
2023-07-29T22:56:45.292Z,98718.72
2023-07-29T22:59:47.661Z,98712.69
2023-07-29T23:02:49.992Z,98721.38
2023-07-29T23:05:52.625Z,98723.03
2023-07-29T23:08:55.007Z,98720.38
2023-07-29T23:11:57.298Z,98725.47
2023-07-29T23:14:59.554Z,98733.28
2023-07-29T23:18:02.215Z,98742.94
2023-07-29T23:21:04.556Z,98731.41
2023-07-29T23:24:06.812Z,98731.41
2023-07-29T23:27:09.088Z,98726.09
2023-07-29T23:30:11.852Z,98717.28
2023-07-29T23:33:14.148Z,98720.81
2023-07-29T23:36:16.467Z,98715.59
2023-07-29T23:39:18.705Z,98716.41
2023-07-29T23:42:20.992Z,98719.91
2023-07-29T23:45:23.381Z,98716.50
2023-07-29T23:48:25.651Z,98714.03
2023-07-29T23:51:27.892Z,98709.75
2023-07-29T23:54:30.192Z,98724.53
2023-07-29T23:57:32.540Z,98714.09
